Time;durP1;ratioP1;P1;durP2;ratioP2;P2;SDS_P1;SDS_P2;PMS_P1;PMS_P2;Temp;Humidity;BMP_temperature;BMP_pressure;BME280_temperature;BME280_humidity;BME280_pressure;Samples;Min_cycle;Max_cycle;Signal;HPM_P1;HPM_P2
2022/01/10 00:00:54;;;;;;;30.75;9.68;;;1.00;99.90;;;;;;5029878;28;20046;-67
2022/01/10 00:03:24;;;;;;;25.10;9.23;;;1.00;99.90;;;;;;5029477;28;20041;-65
2022/01/10 00:05:51;;;;;;;25.40;8.85;;;1.10;99.90;;;;;;5025343;28;20041;-65
2022/01/10 00:08:19;;;;;;;22.88;8.55;;;1.10;99.90;;;;;;5027422;28;20056;-64
2022/01/10 00:10:47;;;;;;;25.45;9.35;;;1.10;99.90;;;;;;5009735;28;20057;-66
2022/01/10 00:13:15;;;;;;;32.22;9.02;;;1.10;99.90;;;;;;5012927;28;20050;-65
2022/01/10 00:15:45;;;;;;;27.83;8.15;;;1.10;99.90;;;;;;5027770;28;20060;-65
2022/01/10 00:18:13;;;;;;;27.45;8.98;;;1.20;99.90;;;;;;5029117;28;20052;-65
2022/01/10 00:20:41;;;;;;;21.88;9.02;;;1.20;99.90;;;;;;5026855;28;20045;-66
2022/01/10 00:23:10;;;;;;;30.00;9.85;;;1.20;99.90;;;;;;5029406;28;20049;-65
2022/01/10 00:25:38;;;;;;;24.58;8.77;;;1.20;99.90;;;;;;5028981;28;20037;-66
2022/01/10 00:28:05;;;;;;;23.88;9.25;;;1.20;99.90;;;;;;5028144;28;20497;-65
2022/01/10 00:30:33;;;;;;;26.15;9.18;;;1.20;99.90;;;;;;5029436;28;20052;-65
2022/01/10 00:33:01;;;;;;;26.85;9.48;;;1.20;99.90;;;;;;5027327;28;20508;-67
2022/01/10 00:35:28;;;;;;;27.92;9.27;;;1.20;99.90;;;;;;5024065;28;20046;-67
2022/01/10 00:37:56;;;;;;;31.88;9.25;;;1.30;99.90;;;;;;5013215;28;20045;-65
2022/01/10 00:40:23;;;;;;;26.55;10.05;;;1.30;99.90;;;;;;5027323;28;20515;-67
2022/01/10 00:42:56;;;;;;;33.28;8.52;;;1.30;99.90;;;;;;5060512;28;20049;-65
2022/01/10 00:45:26;;;;;;;34.08;10.77;;;1.40;99.90;;;;;;5026995;28;20046;-69
2022/01/10 00:47:56;;;;;;;24.42;8.98;;;1.40;99.90;;;;;;5028852;28;20053;-65
2022/01/10 00:50:24;;;;;;;;;;;1.40;99.90;;;;;;5016196;28;20065;-66
2022/01/10 00:52:53;;;;;;;31.23;9.93;;;1.50;99.90;;;;;;5010161;28;19925;-67
2022/01/10 00:55:21;;;;;;;25.85;8.35;;;1.50;99.90;;;;;;5027405;28;20436;-64
2022/01/10 00:57:48;;;;;;;40.45;12.43;;;1.50;99.90;;;;;;5028305;28;20071;-65
2022/01/10 01:00:17;;;;;;;21.48;9.00;;;1.50;99.90;;;;;;5027267;28;20052;-65
2022/01/10 01:02:44;;;;;;;32.15;10.07;;;1.60;99.90;;;;;;5024520;28;20057;-65
2022/01/10 01:05:15;;;;;;;32.15;10.18;;;1.60;99.90;;;;;;5014566;28;20057;-65
2022/01/10 01:07:42;;;;;;;22.67;9.13;;;1.70;99.90;;;;;;5008610;28;20054;-65
2022/01/10 01:13:04;;;;;;;25.33;8.90;;;1.70;99.90;;;;;;5026544;28;20068;-69
2022/01/10 01:15:44;;;;;;;27.35;10.02;;;1.80;99.90;;;;;;5028351;28;20045;-65
2022/01/10 01:18:31;;;;;;;26.25;9.70;;;1.80;99.90;;;;;;5027197;28;20045;-69
2022/01/10 01:24:02;;;;;;;33.17;9.07;;;1.80;99.90;;;;;;5001370;28;20037;-66
2022/01/10 01:26:32;;;;;;;27.20;10.82;;;1.90;99.90;;;;;;5027055;28;20504;-65
2022/01/10 01:29:00;;;;;;;32.55;10.35;;;1.90;99.90;;;;;;5026821;28;20044;-65
2022/01/10 01:31:28;;;;;;;30.25;9.70;;;1.90;99.90;;;;;;5028267;28;20060;-66
2022/01/10 01:33:56;;;;;;;25.25;9.57;;;1.90;99.90;;;;;;5028017;28;20048;-66
2022/01/10 01:36:25;;;;;;;24.73;9.10;;;1.90;99.90;;;;;;5008341;28;20053;-66
2022/01/10 01:38:54;;;;;;;28.35;10.82;;;1.90;99.90;;;;;;5020553;28;20057;-66
2022/01/10 01:43:57;;;;;;;26.08;11.35;;;2.00;99.90;;;;;;5010309;28;20060;-65
2022/01/10 01:46:26;;;;;;;24.92;10.35;;;2.00;99.90;;;;;;5010500;28;20053;-65
2022/01/10 01:48:55;;;;;;;31.90;9.68;;;2.00;99.90;;;;;;5010287;28;20046;-66
2022/01/10 01:51:26;;;;;;;27.05;9.68;;;2.00;99.90;;;;;;5009646;28;20049;-65
2022/01/10 01:53:54;;;;;;;26.60;9.10;;;2.10;99.90;;;;;;5026868;28;20046;-65
2022/01/10 01:56:22;;;;;;;31.77;9.57;;;2.10;99.90;;;;;;5026671;28;20068;-65
2022/01/10 01:58:54;;;;;;;24.45;9.52;;;2.10;99.90;;;;;;5027053;28;20052;-66
2022/01/10 02:01:25;;;;;;;33.13;11.05;;;2.10;99.90;;;;;;5026919;28;20046;-65
2022/01/10 02:03:53;;;;;;;27.38;9.77;;;2.10;99.90;;;;;;5026579;28;20061;-66
2022/01/10 02:06:26;;;;;;;29.58;9.82;;;2.10;99.90;;;;;;5025715;28;20045;-68
2022/01/10 02:08:54;;;;;;;31.08;10.52;;;2.10;99.90;;;;;;5026384;28;20053;-64
2022/01/10 02:11:22;;;;;;;30.92;10.30;;;2.10;99.90;;;;;;5026768;28;20041;-65
2022/01/10 02:13:50;;;;;;;27.70;10.45;;;2.10;99.90;;;;;;5026710;28;20060;-68
2022/01/10 02:16:44;;;;;;;28.80;10.48;;;2.10;99.90;;;;;;5026534;28;20049;-65
2022/01/10 02:19:58;;;;;;;28.80;9.57;;;2.10;99.90;;;;;;5012174;28;20133;-65
2022/01/10 02:22:30;;;;;;;33.00;10.73;;;2.10;99.90;;;;;;4991413;28;20477;-65
2022/01/10 02:25:25;;;;;;;26.65;8.70;;;2.10;99.90;;;;;;5022203;28;20053;-65
2022/01/10 02:27:55;;;;;;;19.42;9.45;;;2.20;99.90;;;;;;5026354;28;20405;-65
2022/01/10 02:30:22;;;;;;;29.58;10.75;;;2.20;99.90;;;;;;5027383;28;20056;-65
2022/01/10 02:32:50;;;;;;;34.28;9.63;;;2.20;99.90;;;;;;5029562;28;20084;-65
2022/01/10 02:35:27;;;;;;;31.52;10.68;;;2.20;99.90;;;;;;5026733;28;20422;-65
2022/01/10 02:37:56;;;;;;;25.13;9.73;;;2.20;99.90;;;;;;5016389;28;20516;-65
2022/01/10 02:40:26;;;;;;;30.02;12.38;;;2.20;99.90;;;;;;5033386;28;20037;-65
2022/01/10 02:42:54;;;;;;;37.03;9.10;;;2.20;99.90;;;;;;5032912;28;20053;-66
2022/01/10 02:45:21;;;;;;;32.90;10.60;;;2.20;99.90;;;;;;5031946;28;20041;-65
2022/01/10 02:47:50;;;;;;;30.05;10.55;;;2.20;99.90;;;;;;5016762;28;20060;-71
2022/01/10 02:50:20;;;;;;;24.65;9.60;;;2.20;99.90;;;;;;5034113;28;20056;-72
2022/01/10 02:52:48;;;;;;;28.45;9.90;;;2.20;99.90;;;;;;5033822;28;20401;-68
2022/01/10 02:55:17;;;;;;;29.10;9.60;;;2.20;99.90;;;;;;5016451;28;20543;-66
2022/01/10 02:57:45;;;;;;;29.83;9.50;;;2.30;99.90;;;;;;5032118;28;20057;-72
2022/01/10 03:00:22;;;;;;;26.00;10.15;;;2.30;99.90;;;;;;5032876;28;20049;-69
2022/01/10 03:02:52;;;;;;;18.30;8.48;;;2.20;99.90;;;;;;5034132;28;20393;-66
2022/01/10 03:05:24;;;;;;;26.13;9.50;;;2.20;99.90;;;;;;5032355;28;20049;-66
2022/01/10 03:07:54;;;;;;;33.28;10.23;;;2.20;99.90;;;;;;5016309;28;20058;-65
2022/01/10 03:10:22;;;;;;;26.27;9.02;;;2.30;99.90;;;;;;5048727;28;20041;-65
2022/01/10 03:12:50;;;;;;;30.20;10.25;;;2.30;99.90;;;;;;5032498;28;20056;-65
2022/01/10 03:15:18;;;;;;;37.33;11.05;;;2.30;99.90;;;;;;5033699;28;20049;-65
2022/01/10 03:17:47;;;;;;;25.75;9.90;;;2.30;99.90;;;;;;5032396;28;20113;-65
2022/01/10 03:20:15;;;;;;;40.20;10.23;;;2.40;99.90;;;;;;5032297;28;20041;-65
2022/01/10 03:22:42;;;;;;;24.48;10.20;;;2.40;99.90;;;;;;5032464;28;20050;-65
2022/01/10 03:25:11;;;;;;;36.95;10.52;;;2.40;99.90;;;;;;5033497;28;20046;-65
2022/01/10 03:27:42;;;;;;;29.25;9.50;;;2.40;99.90;;;;;;5032380;28;20041;-65
2022/01/10 03:30:10;;;;;;;30.23;9.15;;;2.40;99.90;;;;;;5033309;28;20044;-65
2022/01/10 03:32:40;;;;;;;28.25;9.38;;;2.40;99.90;;;;;;5031799;28;20053;-64
2022/01/10 03:35:18;;;;;;;33.97;10.40;;;2.40;99.90;;;;;;5032121;28;20033;-65
2022/01/10 03:37:46;;;;;;;33.97;10.98;;;2.40;99.90;;;;;;5065534;28;20052;-65
2022/01/10 03:40:16;;;;;;;29.38;10.20;;;2.40;99.90;;;;;;5065353;28;20163;-65
2022/01/10 03:42:44;;;;;;;30.67;10.50;;;2.40;99.90;;;;;;5065054;28;20388;-69
2022/01/10 03:45:12;;;;;;;30.80;11.85;;;2.40;99.90;;;;;;5031988;28;20401;-65
2022/01/10 03:47:40;;;;;;;29.73;11.13;;;2.50;99.90;;;;;;5031937;28;20038;-67
2022/01/10 03:50:08;;;;;;;33.25;10.98;;;2.50;99.90;;;;;;5031996;28;20041;-65
2022/01/10 03:52:36;;;;;;;23.50;11.00;;;2.50;99.90;;;;;;5031679;28;20049;-64
2022/01/10 03:55:04;;;;;;;28.17;11.65;;;2.50;99.90;;;;;;5031644;28;20057;-65
2022/01/10 03:57:32;;;;;;;25.33;10.50;;;2.50;99.90;;;;;;5031589;28;20050;-65
2022/01/10 04:00:00;;;;;;;26.45;9.85;;;2.50;99.90;;;;;;5031556;28;20049;-64
2022/01/10 04:02:31;;;;;;;27.95;9.73;;;2.50;99.90;;;;;;5031611;28;20079;-66
2022/01/10 04:04:59;;;;;;;29.58;10.23;;;2.50;99.90;;;;;;5031642;28;20037;-65
2022/01/10 04:07:26;;;;;;;25.70;9.68;;;2.50;99.90;;;;;;5031662;28;20042;-65
2022/01/10 04:09:54;;;;;;;32.28;9.98;;;2.50;99.90;;;;;;5031306;28;20124;-65
2022/01/10 04:12:22;;;;;;;24.25;10.23;;;2.50;99.90;;;;;;5032308;28;20049;-65
2022/01/10 04:14:50;;;;;;;27.35;10.40;;;2.50;99.90;;;;;;5031335;28;20040;-66
2022/01/10 04:17:18;;;;;;;27.60;10.52;;;2.50;99.90;;;;;;5031522;28;20049;-65
2022/01/10 04:19:46;;;;;;;30.92;11.88;;;2.50;99.90;;;;;;5031364;28;20048;-65
2022/01/10 04:22:15;;;;;;;36.20;11.50;;;2.50;99.90;;;;;;5032457;28;20053;-65
2022/01/10 04:24:42;;;;;;;31.48;10.32;;;2.50;99.90;;;;;;5030331;28;20057;-65
2022/01/10 04:27:12;;;;;;;;;;;2.60;99.90;;;;;;5031621;28;20041;-65
2022/01/10 04:29:41;;;;;;;37.75;10.73;;;2.60;99.90;;;;;;5032505;28;20372;-65
2022/01/10 04:32:11;;;;;;;24.70;11.02;;;2.60;99.90;;;;;;5031091;28;20053;-65
2022/01/10 04:34:40;;;;;;;33.17;11.57;;;2.60;99.90;;;;;;5031229;28;20044;-65
2022/01/10 04:37:07;;;;;;;30.65;11.50;;;2.60;99.90;;;;;;5014512;28;20054;-70
2022/01/10 04:39:36;;;;;;;28.98;10.98;;;2.60;99.90;;;;;;5063860;28;20033;-72
2022/01/10 04:42:04;;;;;;;25.30;11.15;;;2.60;99.90;;;;;;5030893;28;20049;-67
2022/01/10 04:44:32;;;;;;;33.50;12.25;;;2.70;99.90;;;;;;5032059;28;20117;-65
2022/01/10 04:47:01;;;;;;;28.60;10.20;;;2.60;99.90;;;;;;5030871;28;20049;-65
2022/01/10 04:49:37;;;;;;;26.45;10.38;;;2.70;99.90;;;;;;5030719;28;20049;-66
2022/01/10 04:52:05;;;;;;;20.83;11.00;;;2.60;99.90;;;;;;5030040;28;20045;-67
2022/01/10 04:54:32;;;;;;;32.83;11.80;;;2.70;99.90;;;;;;5030123;28;20067;-65
2022/01/10 04:57:00;;;;;;;28.95;10.80;;;2.70;99.90;;;;;;5031977;28;20053;-65
2022/01/10 04:59:28;;;;;;;32.80;11.25;;;2.70;99.90;;;;;;5030743;28;20041;-65
2022/01/10 05:01:56;;;;;;;31.58;11.73;;;2.70;99.90;;;;;;5030627;28;20049;-65
2022/01/10 05:04:24;;;;;;;26.02;10.88;;;2.70;99.90;;;;;;5030023;28;20049;-65
2022/01/10 05:06:51;;;;;;;30.65;11.50;;;2.70;99.90;;;;;;5031745;28;20052;-65
2022/01/10 05:09:19;;;;;;;27.50;11.40;;;2.70;99.90;;;;;;5030560;28;20052;-67
2022/01/10 05:11:56;;;;;;;39.65;11.77;;;2.70;99.90;;;;;;5063556;28;20041;-65
2022/01/10 05:14:25;;;;;;;31.73;10.43;;;2.80;99.90;;;;;;5063607;28;20141;-65
2022/01/10 05:16:52;;;;;;;31.55;9.80;;;2.80;99.90;;;;;;5029972;28;20057;-65
2022/01/10 05:19:20;;;;;;;24.52;9.32;;;2.80;99.90;;;;;;5030316;28;20120;-66
2022/01/10 05:21:51;;;;;;;37.55;12.70;;;2.80;99.90;;;;;;5030509;28;20056;-65
2022/01/10 05:24:19;;;;;;;24.92;10.32;;;2.90;99.90;;;;;;5029938;28;20050;-66
2022/01/10 05:26:46;;;;;;;44.90;10.95;;;2.90;99.90;;;;;;5030345;28;20057;-66
2022/01/10 05:29:18;;;;;;;47.25;10.40;;;2.90;99.90;;;;;;5029752;28;20053;-65
2022/01/10 05:31:46;;;;;;;37.53;11.98;;;3.00;99.90;;;;;;5030049;28;20369;-65
2022/01/10 05:34:24;;;;;;;61.75;14.60;;;3.00;99.90;;;;;;5030121;28;20041;-65
2022/01/10 05:36:52;;;;;;;54.45;14.05;;;3.10;99.90;;;;;;5029939;28;20061;-65
2022/01/10 05:39:20;;;;;;;47.30;11.63;;;3.10;99.90;;;;;;5031027;28;20049;-65
2022/01/10 05:41:48;;;;;;;45.15;11.85;;;3.10;99.90;;;;;;5030026;28;20048;-65
2022/01/10 05:44:16;;;;;;;42.38;10.13;;;3.20;99.90;;;;;;5029870;28;20034;-65
2022/01/10 05:46:46;;;;;;;35.10;9.63;;;3.20;99.90;;;;;;5013581;28;20061;-65
2022/01/10 05:49:18;;;;;;;43.17;10.30;;;3.30;99.90;;;;;;5006873;28;20050;-67
2022/01/10 05:51:49;;;;;;;29.10;8.18;;;3.30;99.90;;;;;;4999917;28;20037;-68
2022/01/10 05:54:37;;;;;;;24.48;9.32;;;3.30;99.90;;;;;;5027265;28;20068;-66
2022/01/10 05:57:06;;;;;;;52.80;10.00;;;3.40;99.90;;;;;;5026715;28;20924;-71
2022/01/10 05:59:38;;;;;;;36.53;8.73;;;3.40;99.90;;;;;;5026845;28;20049;-67
2022/01/10 06:02:06;;;;;;;38.40;8.68;;;3.50;99.90;;;;;;5019586;28;20074;-67
2022/01/10 06:04:35;;;;;;;34.08;8.60;;;3.50;99.90;;;;;;5021682;28;20045;-73
2022/01/10 06:07:14;;;;;;;21.98;7.70;;;3.50;99.90;;;;;;5008014;28;20068;-75
2022/01/10 06:09:45;;;;;;;36.05;8.95;;;3.50;99.90;;;;;;5026607;28;20045;-75
2022/01/10 06:12:14;;;;;;;21.85;7.95;;;3.60;99.90;;;;;;5026836;28;20058;-74
2022/01/10 06:14:42;;;;;;;37.10;8.80;;;3.60;99.90;;;;;;5026706;28;20052;-76
2022/01/10 06:17:10;;;;;;;33.45;8.50;;;3.70;99.90;;;;;;5026840;28;20045;-75
2022/01/10 06:19:38;;;;;;;40.83;8.07;;;3.70;99.90;;;;;;5024004;28;20428;-68
2022/01/10 06:22:06;;;;;;;29.08;7.72;;;3.70;99.90;;;;;;5027346;28;20049;-70
2022/01/10 06:24:34;;;;;;;34.17;9.45;;;3.80;99.90;;;;;;5031056;28;20120;-67
2022/01/10 06:27:03;;;;;;;39.85;8.68;;;3.70;99.90;;;;;;5029363;28;20386;-67
2022/01/10 06:29:33;;;;;;;23.55;6.88;;;3.70;99.90;;;;;;5013459;28;20046;-66
2022/01/10 06:32:01;;;;;;;34.67;7.05;;;3.70;99.90;;;;;;5026943;28;20049;-65
2022/01/10 06:34:30;;;;;;;26.02;7.47;;;3.70;99.90;;;;;;5010747;28;20061;-66
2022/01/10 06:37:01;;;;;;;32.20;9.00;;;3.70;99.90;;;;;;5007035;28;20386;-67
2022/01/10 06:39:33;;;;;;;29.40;7.22;;;3.80;99.90;;;;;;5016008;28;20480;-65
2022/01/10 06:42:00;;;;;;;30.67;6.72;;;3.80;99.90;;;;;;5030615;28;20469;-65
2022/01/10 06:44:29;;;;;;;27.60;6.35;;;3.80;99.90;;;;;;5029655;28;20042;-68
2022/01/10 06:46:57;;;;;;;21.13;6.47;;;3.80;99.90;;;;;;5013137;28;20049;-65
2022/01/10 06:49:25;;;;;;;28.00;6.20;;;3.80;99.90;;;;;;5014040;28;20042;-65
2022/01/10 06:51:53;;;;;;;31.02;6.93;;;3.90;99.90;;;;;;5021545;28;20053;-64
2022/01/10 06:54:21;;;;;;;26.65;7.03;;;3.90;99.90;;;;;;5012782;28;20485;-65
2022/01/10 06:56:52;;;;;;;35.97;6.72;;;3.90;99.90;;;;;;5009701;28;20037;-68
2022/01/10 06:59:19;;;;;;;24.85;6.35;;;3.90;99.90;;;;;;5025447;28;20053;-64
2022/01/10 07:01:49;;;;;;;30.50;7.60;;;3.90;99.90;;;;;;5010445;28;20061;-65
2022/01/10 07:04:17;;;;;;;33.63;6.70;;;4.00;99.90;;;;;;5016131;28;20037;-65
2022/01/10 07:06:46;;;;;;;40.30;6.60;;;4.00;99.90;;;;;;5025646;28;20041;-65
2022/01/10 07:09:20;;;;;;;25.55;6.65;;;4.00;99.90;;;;;;5025856;28;20485;-67
2022/01/10 07:11:58;;;;;;;21.80;6.97;;;4.10;99.90;;;;;;5025747;28;20040;-65
2022/01/10 07:14:29;;;;;;;43.25;7.80;;;4.10;99.90;;;;;;5025696;28;20045;-66
2022/01/10 07:16:59;;;;;;;28.98;5.95;;;4.10;99.90;;;;;;5041740;28;20046;-65
2022/01/10 07:19:27;;;;;;;39.15;7.05;;;4.20;99.90;;;;;;5016462;28;20428;-69
2022/01/10 07:21:56;;;;;;;24.23;5.88;;;4.20;99.90;;;;;;5026142;28;20056;-71
2022/01/10 07:24:24;;;;;;;25.92;7.43;;;4.20;99.90;;;;;;5011927;28;20053;-70
2022/01/10 07:26:52;;;;;;;30.55;6.13;;;4.30;99.90;;;;;;5027622;28;20485;-70
2022/01/10 07:29:19;;;;;;;36.45;5.85;;;4.30;99.90;;;;;;5025347;28;20038;-65
2022/01/10 07:31:47;;;;;;;33.45;6.43;;;4.30;99.90;;;;;;5025668;28;20041;-65
2022/01/10 07:34:15;;;;;;;28.13;6.72;;;4.30;99.90;;;;;;5015419;28;20049;-65
2022/01/10 07:36:44;;;;;;;33.40;7.47;;;4.40;99.90;;;;;;5011012;28;20041;-65
2022/01/10 07:39:12;;;;;;;32.03;7.18;;;4.40;99.90;;;;;;5030040;28;20057;-65
2022/01/10 07:41:45;;;;;;;26.73;5.63;;;4.40;99.90;;;;;;5029249;28;20041;-64
2022/01/10 07:44:23;;;;;;;38.65;6.18;;;4.40;99.90;;;;;;5027607;28;20056;-63
2022/01/10 07:46:51;;;;;;;32.10;7.88;;;4.50;99.90;;;;;;5028648;28;20053;-64
2022/01/10 07:49:19;;;;;;;23.02;6.15;;;4.50;99.90;;;;;;5023711;28;20045;-64
2022/01/10 07:51:47;;;;;;;25.25;6.22;;;4.50;99.90;;;;;;5029251;28;20052;-65
2022/01/10 07:54:15;;;;;;;27.13;8.30;;;4.50;99.90;;;;;;5028797;28;20432;-64
2022/01/10 07:56:42;;;;;;;37.33;6.75;;;4.50;99.90;;;;;;5029795;28;20378;-65
2022/01/10 07:59:10;;;;;;;24.73;7.22;;;4.50;99.90;;;;;;5011783;28;20053;-65
2022/01/10 08:01:38;;;;;;;33.78;7.05;;;4.50;99.90;;;;;;5026853;28;20034;-66
2022/01/10 08:04:06;;;;;;;30.95;5.90;;;4.60;99.90;;;;;;5020813;28;20054;-66
2022/01/10 08:06:34;;;;;;;29.60;5.88;;;4.60;99.90;;;;;;5006775;28;20654;-65
2022/01/10 08:09:01;;;;;;;29.00;6.90;;;4.60;99.90;;;;;;5024906;28;20061;-65
2022/01/10 08:11:29;;;;;;;32.42;5.82;;;4.60;99.90;;;;;;5008373;28;20065;-64
2022/01/10 08:13:57;;;;;;;33.42;6.40;;;4.60;99.90;;;;;;5024675;28;20049;-66
2022/01/10 08:16:25;;;;;;;29.63;5.85;;;4.60;99.90;;;;;;5029150;28;20055;-65
2022/01/10 08:18:52;;;;;;;29.27;6.10;;;4.60;99.90;;;;;;5023748;28;20076;-65
2022/01/10 08:21:20;;;;;;;25.92;5.63;;;4.70;99.90;;;;;;5017833;28;20045;-66
2022/01/10 08:23:48;;;;;;;30.25;6.40;;;4.70;99.90;;;;;;5027526;28;20050;-64
2022/01/10 08:26:16;;;;;;;26.00;6.13;;;4.70;99.90;;;;;;5027770;28;20050;-66
2022/01/10 08:28:44;;;;;;;31.23;7.07;;;4.70;99.90;;;;;;5027501;28;20049;-65
2022/01/10 08:31:11;;;;;;;22.85;6.10;;;4.80;99.90;;;;;;5028289;28;20056;-65
2022/01/10 08:33:40;;;;;;;20.92;5.45;;;4.80;99.90;;;;;;5025966;28;20374;-65
2022/01/10 08:36:08;;;;;;;28.27;6.43;;;4.80;99.90;;;;;;5019908;28;20050;-65
2022/01/10 08:38:35;;;;;;;29.27;5.85;;;4.80;99.90;;;;;;5028378;28;20444;-65
2022/01/10 08:41:03;;;;;;;29.17;6.38;;;4.80;99.90;;;;;;5027250;28;20049;-65
2022/01/10 08:43:30;;;;;;;31.73;7.40;;;4.90;99.90;;;;;;5027143;28;20060;-64
2022/01/10 08:45:58;;;;;;;33.97;6.10;;;4.90;99.90;;;;;;5028523;28;20044;-64
2022/01/10 08:48:26;;;;;;;31.10;7.25;;;4.80;99.90;;;;;;5028304;28;20056;-65
2022/01/10 08:50:53;;;;;;;29.88;6.88;;;4.90;99.90;;;;;;5028071;28;20060;-64
2022/01/10 08:53:21;;;;;;;29.02;7.25;;;5.00;99.90;;;;;;5026538;28;20056;-65
2022/01/10 08:55:52;;;;;;;27.67;7.60;;;5.00;99.90;;;;;;5025821;28;20045;-65
2022/01/10 08:58:21;;;;;;;31.90;6.70;;;5.00;99.90;;;;;;5026880;28;20095;-65
2022/01/10 09:00:49;;;;;;;26.05;6.70;;;5.00;99.90;;;;;;5020971;28;20362;-64
2022/01/10 09:03:17;;;;;;;31.85;7.38;;;5.00;99.90;;;;;;5018083;28;20392;-66
2022/01/10 09:05:45;;;;;;;36.60;7.15;;;5.10;99.90;;;;;;5023990;28;20060;-66
2022/01/10 09:08:12;;;;;;;37.25;9.30;;;5.10;99.90;;;;;;5027762;28;20041;-67
2022/01/10 09:10:40;;;;;;;35.83;6.88;;;5.10;99.90;;;;;;5027801;28;20056;-66
2022/01/10 09:13:07;;;;;;;33.30;7.10;;;5.10;99.90;;;;;;5027131;28;20050;-65
2022/01/10 09:15:37;;;;;;;28.35;7.60;;;5.20;99.90;;;;;;5026909;28;20485;-65
2022/01/10 09:18:05;;;;;;;33.03;6.25;;;5.20;99.90;;;;;;5027872;28;20052;-65
2022/01/10 09:20:33;;;;;;;26.45;5.68;;;5.20;99.90;;;;;;5024448;28;20037;-65
2022/01/10 09:23:00;;;;;;;28.55;6.15;;;5.20;99.90;;;;;;5027720;28;20503;-64
2022/01/10 09:25:28;;;;;;;28.55;5.80;;;5.30;99.90;;;;;;5027497;28;20053;-66
2022/01/10 09:27:56;;;;;;;32.13;5.63;;;5.20;99.90;;;;;;5027519;28;20076;-67
2022/01/10 09:30:24;;;;;;;24.88;5.90;;;5.30;99.90;;;;;;5027475;28;20046;-66
2022/01/10 09:32:54;;;;;;;35.25;7.18;;;5.30;99.90;;;;;;5027348;28;20049;-66
2022/01/10 09:35:23;;;;;;;23.13;4.95;;;5.30;99.90;;;;;;5023924;28;20045;-66
2022/01/10 09:37:51;;;;;;;24.33;4.73;;;5.30;99.90;;;;;;5012609;28;20049;-68
2022/01/10 09:40:19;;;;;;;24.15;4.53;;;5.40;99.90;;;;;;5027827;28;20056;-67
2022/01/10 09:42:47;;;;;;;21.20;4.57;;;5.40;99.90;;;;;;5029802;28;20052;-68
2022/01/10 09:45:14;;;;;;;29.73;4.82;;;5.40;99.90;;;;;;5015174;28;20054;-68
2022/01/10 09:47:42;;;;;;;18.05;5.35;;;5.50;99.90;;;;;;5032075;28;20038;-66
2022/01/10 09:50:15;;;;;;;25.15;6.35;;;5.50;99.90;;;;;;4995167;28;20056;-68
2022/01/10 09:52:46;;;;;;;18.67;5.55;;;5.50;99.90;;;;;;5030817;28;20044;-68
2022/01/10 09:55:15;;;;;;;35.17;6.82;;;5.60;99.90;;;;;;5031015;28;20049;-68
2022/01/10 09:57:43;;;;;;;34.03;6.97;;;5.60;99.90;;;;;;5030218;28;21721;-68
2022/01/10 10:00:12;;;;;;;35.00;5.55;;;5.60;99.90;;;;;;5031679;28;20061;-67
2022/01/10 10:02:41;;;;;;;23.05;5.80;;;5.60;99.90;;;;;;5030423;28;20029;-67
2022/01/10 10:05:11;;;;;;;21.98;5.50;;;5.60;99.90;;;;;;5022495;28;20083;-69
2022/01/10 10:07:39;;;;;;;;;;;5.60;99.90;;;;;;5028224;28;20057;-68
2022/01/10 10:10:11;;;;;;;31.15;6.03;;;5.60;99.90;;;;;;5031970;28;20299;-68
2022/01/10 10:12:42;;;;;;;22.15;4.85;;;5.60;99.90;;;;;;5030343;28;20045;-68
2022/01/10 10:15:12;;;;;;;27.38;6.55;;;5.70;99.90;;;;;;5030840;28;20045;-69
2022/01/10 10:17:41;;;;;;;28.73;7.63;;;5.70;99.90;;;;;;5027460;28;20428;-67
2022/01/10 10:20:21;;;;;;;22.38;5.22;;;5.70;99.90;;;;;;5030797;28;20045;-70
2022/01/10 10:23:14;;;;;;;23.98;5.53;;;5.70;99.90;;;;;;5028586;28;20045;-70
2022/01/10 10:25:51;;;;;;;27.85;5.55;;;5.70;99.90;;;;;;5030982;28;20066;-70
2022/01/10 10:28:19;;;;;;;24.02;6.53;;;5.70;99.90;;;;;;5030662;28;20401;-69
2022/01/10 10:30:47;;;;;;;27.17;7.88;;;5.80;99.90;;;;;;5031329;28;20057;-69
2022/01/10 10:33:19;;;;;;;23.98;5.25;;;5.80;99.90;;;;;;5029335;28;20045;-68
2022/01/10 10:35:58;;;;;;;23.13;6.65;;;5.80;99.90;;;;;;5018797;28;20085;-69
2022/01/10 10:38:27;;;;;;;20.55;5.40;;;5.80;99.90;;;;;;5030886;28;20048;-69
2022/01/10 10:41:00;;;;;;;28.15;5.63;;;5.80;99.90;;;;;;5030369;28;20053;-68
2022/01/10 10:43:39;;;;;;;25.35;6.55;;;5.80;99.90;;;;;;5029954;28;20408;-69
2022/01/10 10:46:13;;;;;;;21.20;6.07;;;5.80;99.90;;;;;;5029806;28;20057;-68
2022/01/10 10:48:43;;;;;;;26.63;5.97;;;5.80;99.90;;;;;;5030422;28;20053;-68
2022/01/10 10:51:11;;;;;;;25.98;6.65;;;5.90;99.90;;;;;;5025030;28;20065;-67
2022/01/10 10:53:39;;;;;;;27.58;6.45;;;5.90;99.90;;;;;;5023626;28;20048;-69
2022/01/10 10:56:08;;;;;;;24.23;6.10;;;5.90;99.90;;;;;;5030763;28;20397;-69
2022/01/10 10:58:39;;;;;;;33.65;7.10;;;5.90;99.90;;;;;;5030741;28;20056;-68
2022/01/10 11:01:07;;;;;;;22.70;6.63;;;6.00;99.90;;;;;;5030401;28;20046;-68
2022/01/10 11:03:35;;;;;;;27.00;6.00;;;6.00;99.90;;;;;;5029967;28;20045;-68
2022/01/10 11:06:05;;;;;;;32.50;7.00;;;6.00;99.90;;;;;;5028386;28;20543;-68
2022/01/10 11:08:35;;;;;;;29.77;6.30;;;6.00;99.90;;;;;;5029214;28;20053;-69
2022/01/10 11:11:03;;;;;;;24.92;6.60;;;6.00;99.90;;;;;;5029191;28;20053;-69
2022/01/10 11:13:31;;;;;;;24.15;6.80;;;6.00;99.90;;;;;;5028849;28;20041;-68
2022/01/10 11:15:59;;;;;;;30.77;7.57;;;6.00;99.90;;;;;;5030193;28;20045;-71
2022/01/10 11:18:27;;;;;;;27.85;7.47;;;6.10;99.90;;;;;;5030227;28;20052;-69
2022/01/10 11:20:58;;;;;;;35.20;7.43;;;6.10;99.90;;;;;;5017424;28;20057;-68
2022/01/10 11:23:45;;;;;;;28.48;6.70;;;6.10;99.90;;;;;;5028067;28;20045;-68
2022/01/10 11:26:14;;;;;;;27.35;6.03;;;6.20;99.90;;;;;;5028054;28;20064;-70
2022/01/10 11:28:55;;;;;;;24.43;6.73;;;6.20;99.90;;;;;;5025753;28;20473;-69
2022/01/10 11:31:25;;;;;;;31.88;6.82;;;6.20;99.90;;;;;;5028961;28;20492;-70
2022/01/10 11:33:56;;;;;;;24.50;6.07;;;6.30;99.90;;;;;;5029492;28;20053;-69
2022/01/10 11:36:26;;;;;;;20.83;7.13;;;6.30;99.90;;;;;;5021541;28;20053;-70
2022/01/10 11:38:56;;;;;;;35.92;6.90;;;6.40;99.90;;;;;;5028766;28;20041;-68
2022/01/10 11:41:29;;;;;;;16.52;6.03;;;6.40;99.90;;;;;;5029979;28;20057;-69
2022/01/10 11:44:08;;;;;;;32.13;7.07;;;6.50;99.90;;;;;;5030050;28;20067;-68
2022/01/10 11:46:42;;;;;;;26.90;6.60;;;6.50;99.90;;;;;;5012492;28;20056;-69
2022/01/10 11:49:09;;;;;;;21.48;5.07;;;6.50;99.90;;;;;;5029388;28;20053;-68
2022/01/10 11:51:39;;;;;;;23.25;6.35;;;6.60;99.90;;;;;;5016885;28;20061;-70
2022/01/10 11:54:15;;;;;;;33.67;4.88;;;6.60;99.90;;;;;;5029253;28;20515;-68
2022/01/10 11:56:45;;;;;;;20.58;6.25;;;6.60;99.90;;;;;;5029900;28;20046;-68
2022/01/10 11:59:25;;;;;;;27.40;6.38;;;6.70;99.90;;;;;;5029189;28;20068;-67
2022/01/10 12:01:57;;;;;;;24.80;5.60;;;6.70;99.90;;;;;;5019114;28;20060;-66
2022/01/10 12:04:31;;;;;;;34.33;6.25;;;6.80;99.90;;;;;;5028478;28;20064;-67
2022/01/10 12:06:59;;;;;;;21.48;6.00;;;6.90;99.90;;;;;;5011412;28;20397;-67
2022/01/10 12:09:27;;;;;;;34.72;7.07;;;6.90;99.90;;;;;;5027933;28;20049;-67
2022/01/10 12:11:57;;;;;;;24.20;5.95;;;7.00;99.90;;;;;;5028691;28;20056;-70
2022/01/10 12:14:24;;;;;;;;;;;7.00;99.90;;;;;;5029251;28;20053;-66
2022/01/10 12:16:53;;;;;;;24.30;5.60;;;7.10;99.90;;;;;;5028843;28;19921;-68
2022/01/10 12:19:21;;;;;;;26.52;6.28;;;7.10;99.90;;;;;;5029139;28;20052;-66
2022/01/10 12:21:49;;;;;;;24.30;4.90;;;7.10;99.90;;;;;;5012387;28;20049;-67
2022/01/10 12:24:17;;;;;;;29.33;5.90;;;7.10;99.90;;;;;;5025339;28;20413;-68
2022/01/10 12:26:45;;;;;;;30.75;6.30;;;7.10;99.90;;;;;;5027709;28;20046;-69
2022/01/10 12:29:15;;;;;;;26.00;6.78;;;7.10;99.90;;;;;;5029002;28;20050;-72
2022/01/10 12:31:45;;;;;;;30.38;6.75;;;7.10;99.90;;;;;;5028485;28;20192;-66
2022/01/10 12:34:14;;;;;;;31.08;7.40;;;7.10;99.90;;;;;;5028513;28;20041;-68
2022/01/10 12:36:43;;;;;;;23.27;6.15;;;7.10;99.90;;;;;;4998550;28;20046;-69
2022/01/10 12:39:20;;;;;;;26.08;7.07;;;7.10;99.90;;;;;;5028424;28;20060;-66
2022/01/10 12:41:50;;;;;;;17.65;5.75;;;7.10;99.90;;;;;;5028528;28;20049;-67
2022/01/10 12:44:19;;;;;;;25.67;5.88;;;7.20;99.90;;;;;;5027275;28;20523;-67
2022/01/10 12:46:47;;;;;;;27.50;6.28;;;7.20;99.90;;;;;;5028848;28;20048;-67
2022/01/10 12:49:16;;;;;;;21.75;8.02;;;7.10;99.90;;;;;;5028251;28;20060;-67
2022/01/10 12:51:50;;;;;;;20.55;5.05;;;7.20;99.90;;;;;;5015011;28;20046;-66
2022/01/10 12:54:27;;;;;;;25.20;7.45;;;7.10;99.90;;;;;;5026241;28;20046;-66
2022/01/10 12:56:56;;;;;;;27.38;6.63;;;7.10;99.90;;;;;;5028249;28;20046;-66
2022/01/10 12:59:26;;;;;;;31.27;6.40;;;7.10;99.90;;;;;;5028469;28;20053;-66
2022/01/10 13:01:55;;;;;;;22.45;5.45;;;7.10;99.90;;;;;;5010069;28;20049;-66
2022/01/10 13:04:25;;;;;;;;;;;7.10;99.90;;;;;;5028411;28;20049;-68
2022/01/10 13:06:53;;;;;;;15.30;4.95;;;7.10;99.90;;;;;;5020144;28;19948;-66